createdAt,value
2023-01-25T00:00:41.178Z,-0.52
2023-01-25T00:01:55.293Z,-0.49
2023-01-25T00:03:00.404Z,-0.46
2023-01-25T00:04:02.378Z,-0.45
2023-01-25T00:05:07.857Z,-0.49
2023-01-25T00:06:10.098Z,-0.53
2023-01-25T00:07:17.337Z,-0.58
2023-01-25T00:08:21.276Z,-0.56
2023-01-25T00:09:27.034Z,-0.48
2023-01-25T00:10:29.083Z,-0.44
2023-01-25T00:11:34.097Z,-0.48
2023-01-25T00:12:36.098Z,-0.52
2023-01-25T00:13:40.655Z,-0.49
2023-01-25T00:14:42.590Z,-0.53
2023-01-25T00:15:47.126Z,-0.48
2023-01-25T00:16:49.208Z,-0.51
2023-01-25T00:17:53.983Z,-0.49
2023-01-25T00:18:55.973Z,-0.53
2023-01-25T00:20:00.550Z,-0.52
2023-01-25T00:21:12.166Z,-0.55
2023-01-25T00:22:19.041Z,-0.48
2023-01-25T00:23:21.233Z,-0.41
2023-01-25T00:24:26.316Z,-0.51
2023-01-25T00:25:28.373Z,-0.50
2023-01-25T00:26:33.603Z,-0.52
2023-01-25T00:27:35.666Z,-0.54
2023-01-25T00:28:40.629Z,-0.53
2023-01-25T00:29:42.820Z,-0.54
2023-01-25T00:30:47.402Z,-0.48
2023-01-25T00:32:02.461Z,-0.53
2023-01-25T00:33:30.028Z,-0.54
2023-01-25T00:34:51.672Z,-0.53
2023-01-25T00:35:57.018Z,-0.52
2023-01-25T00:37:05.657Z,-0.55
2023-01-25T00:38:33.237Z,-0.51
2023-01-25T00:39:35.270Z,-0.49
2023-01-25T00:40:39.809Z,-0.47
2023-01-25T00:41:42.867Z,-0.45
2023-01-25T00:42:47.478Z,-0.44
2023-01-25T00:43:49.455Z,-0.45
2023-01-25T00:44:54.076Z,-0.47
2023-01-25T00:46:00.850Z,-0.48
2023-01-25T00:47:05.510Z,-0.44
2023-01-25T00:48:10.143Z,-0.46
2023-01-25T00:49:19.949Z,-0.47
2023-01-25T00:50:24.550Z,-0.53
2023-01-25T00:51:26.652Z,-0.52
2023-01-25T00:52:31.392Z,-0.39
2023-01-25T00:53:36.110Z,-0.43
2023-01-25T00:54:40.699Z,-0.39
2023-01-25T00:55:51.201Z,-0.34
2023-01-25T00:56:56.652Z,-0.40
2023-01-25T00:58:01.308Z,-0.41
2023-01-25T00:59:03.306Z,-0.50
2023-01-25T01:00:09.536Z,-0.49
2023-01-25T01:01:12.523Z,-0.53
2023-01-25T01:02:17.309Z,-0.46
2023-01-25T01:03:19.453Z,-0.50
2023-01-25T01:04:25.706Z,-0.49
2023-01-25T01:05:30.509Z,-0.49
2023-01-25T01:06:32.660Z,-0.50
2023-01-25T01:07:37.490Z,-0.52
2023-01-25T01:08:43.079Z,-0.53
2023-01-25T01:09:47.778Z,-0.61
2023-01-25T01:10:49.863Z,-0.56
2023-01-25T01:11:54.717Z,-0.51
2023-01-25T01:12:56.884Z,-0.54
2023-01-25T01:14:02.191Z,-0.55
2023-01-25T01:15:08.402Z,-0.55
2023-01-25T01:16:12.284Z,-0.52
2023-01-25T01:17:17.077Z,-0.46
2023-01-25T01:18:19.203Z,-0.52
2023-01-25T01:19:24.230Z,-0.53
2023-01-25T01:20:26.320Z,-0.46
2023-01-25T01:21:31.422Z,-0.49
2023-01-25T01:22:33.426Z,-0.51
2023-01-25T01:23:39.502Z,-0.49
2023-01-25T01:24:46.860Z,-0.49
2023-01-25T01:25:48.997Z,-0.47
2023-01-25T01:26:53.674Z,-0.40
2023-01-25T01:27:55.755Z,-0.51
2023-01-25T01:29:01.675Z,-0.53
2023-01-25T01:30:04.588Z,-0.57
2023-01-25T01:31:11.393Z,-0.60
2023-01-25T01:32:16.198Z,-0.62
2023-01-25T01:33:18.315Z,-0.59
2023-01-25T01:34:23.012Z,-0.62
2023-01-25T01:35:24.999Z,-0.65
2023-01-25T01:36:32.420Z,-0.59
2023-01-25T01:37:34.422Z,-0.61
2023-01-25T01:38:39.350Z,-0.58
2023-01-25T01:39:43.963Z,-0.54
2023-01-25T01:40:49.311Z,-0.62
2023-01-25T01:41:53.954Z,-0.59
2023-01-25T01:43:01.252Z,-0.64
2023-01-25T01:44:06.692Z,-0.63
2023-01-25T01:45:38.551Z,-0.58
2023-01-25T01:46:43.614Z,-0.62
2023-01-25T01:47:48.874Z,-0.57
2023-01-25T01:48:57.739Z,-0.60
2023-01-25T01:50:03.778Z,-0.63
2023-01-25T01:51:19.470Z,-0.68
2023-01-25T01:52:30.351Z,-0.68
2023-01-25T01:53:33.866Z,-0.71
2023-01-25T01:54:46.003Z,-0.71
2023-01-25T01:55:51.877Z,-0.66
2023-01-25T01:57:01.489Z,-0.67
2023-01-25T01:58:04.662Z,-0.58
2023-01-25T01:59:10.907Z,-0.55
2023-01-25T02:00:16.835Z,-0.62
2023-01-25T02:01:21.975Z,-0.62
2023-01-25T02:02:25.126Z,-0.57
2023-01-25T02:03:31.500Z,-0.51
2023-01-25T02:04:35.467Z,-0.54
2023-01-25T02:05:46.947Z,-0.58
2023-01-25T02:06:53.676Z,-0.64
2023-01-25T02:07:59.137Z,-0.59
2023-01-25T02:09:02.019Z,-0.61
2023-01-25T02:10:08.964Z,-0.68
2023-01-25T02:11:13.909Z,-0.67
2023-01-25T02:12:19.231Z,-0.66
2023-01-25T02:13:21.961Z,-0.62
2023-01-25T02:14:27.387Z,-0.68
2023-01-25T02:15:37.666Z,-0.69
2023-01-25T02:16:42.548Z,-0.65
2023-01-25T02:17:44.542Z,-0.68
2023-01-25T02:18:49.793Z,-0.69
2023-01-25T02:19:56.920Z,-0.65
2023-01-25T02:21:03.971Z,-0.65
2023-01-25T02:22:13.528Z,-0.65
2023-01-25T02:23:27.880Z,-0.73
2023-01-25T02:24:33.379Z,-0.70
2023-01-25T02:25:41.572Z,-0.74
2023-01-25T02:26:43.836Z,-0.72
2023-01-25T02:27:54.617Z,-0.74
2023-01-25T02:29:01.158Z,-0.71
2023-01-25T02:30:06.686Z,-0.70
2023-01-25T02:31:08.747Z,-0.78
2023-01-25T02:32:13.655Z,-0.74
2023-01-25T02:33:16.204Z,-0.73
2023-01-25T02:34:20.810Z,-0.76
2023-01-25T02:35:36.103Z,-0.69
2023-01-25T02:36:40.875Z,-0.71
2023-01-25T02:37:42.864Z,-0.78
2023-01-25T02:38:54.007Z,-0.83
2023-01-25T02:39:56.010Z,-0.87
2023-01-25T02:41:09.444Z,-0.88
2023-01-25T02:42:11.424Z,-0.83
2023-01-25T02:43:16.137Z,-0.81
2023-01-25T02:44:21.527Z,-0.86
2023-01-25T02:45:32.506Z,-0.77
2023-01-25T02:46:36.967Z,-0.78
2023-01-25T02:47:41.805Z,-0.77
2023-01-25T02:48:43.810Z,-0.81
2023-01-25T02:49:48.556Z,-0.78
2023-01-25T02:50:50.639Z,-0.82
2023-01-25T02:51:57.857Z,-0.78
2023-01-25T02:52:59.968Z,-0.79
2023-01-25T02:54:06.152Z,-0.76
2023-01-25T02:55:09.816Z,-0.79
2023-01-25T02:56:17.592Z,-0.81
2023-01-25T02:57:21.672Z,-0.84
2023-01-25T02:58:27.749Z,-0.82
2023-01-25T02:59:29.833Z,-0.86
2023-01-25T03:00:34.458Z,-0.79
2023-01-25T03:01:38.473Z,-0.81
2023-01-25T03:02:43.418Z,-0.77
2023-01-25T03:03:45.597Z,-0.79
2023-01-25T03:04:51.283Z,-0.79
2023-01-25T03:05:53.471Z,-0.82
2023-01-25T03:06:58.842Z,-0.78
2023-01-25T03:08:01.057Z,-0.78
2023-01-25T03:09:07.040Z,-0.76
2023-01-25T03:10:10.843Z,-0.71
2023-01-25T03:11:18.105Z,-0.67
2023-01-25T03:12:20.233Z,-0.71
2023-01-25T03:13:24.890Z,-0.77
2023-01-25T03:14:26.941Z,-0.74
2023-01-25T03:15:31.635Z,-0.73
2023-01-25T03:16:33.982Z,-0.83
2023-01-25T03:17:39.018Z,-0.87
2023-01-25T03:18:41.415Z,-0.82
2023-01-25T03:19:46.135Z,-0.79
2023-01-25T03:20:48.106Z,-0.83
2023-01-25T03:21:52.769Z,-0.84
2023-01-25T03:22:55.372Z,-0.81
2023-01-25T03:24:03.282Z,-0.84
2023-01-25T03:25:07.351Z,-0.84
2023-01-25T03:26:13.687Z,-0.85
2023-01-25T03:27:18.709Z,-0.75
2023-01-25T03:28:23.344Z,-0.77
2023-01-25T03:29:25.319Z,-0.75
2023-01-25T03:30:29.951Z,-0.76
2023-01-25T03:31:32.119Z,-0.75
2023-01-25T03:32:38.118Z,-0.74
2023-01-25T03:33:40.797Z,-0.71
2023-01-25T03:34:45.508Z,-0.73
2023-01-25T03:35:52.347Z,-0.78
2023-01-25T03:36:56.981Z,-0.79
2023-01-25T03:37:58.965Z,-0.79
2023-01-25T03:39:03.621Z,-0.84
2023-01-25T03:40:07.176Z,-0.85
2023-01-25T03:41:13.111Z,-0.84
2023-01-25T03:42:20.304Z,-0.87
2023-01-25T03:43:24.983Z,-0.94
2023-01-25T03:44:27.204Z,-0.93
2023-01-25T03:45:32.008Z,-0.94
2023-01-25T03:46:34.017Z,-0.91
2023-01-25T03:47:38.702Z,-0.88
2023-01-25T03:48:40.733Z,-0.94
2023-01-25T03:49:45.623Z,-0.88
2023-01-25T03:50:52.069Z,-0.79
2023-01-25T03:51:58.093Z,-0.78
2023-01-25T03:53:03.789Z,-0.84
2023-01-25T03:54:10.397Z,-0.81
2023-01-25T03:55:12.517Z,-0.82
2023-01-25T03:56:20.682Z,-0.76
2023-01-25T03:57:25.919Z,-0.79
2023-01-25T03:58:31.376Z,-0.81
2023-01-25T03:59:33.696Z,-0.88
2023-01-25T04:00:38.442Z,-0.84
2023-01-25T04:01:40.742Z,-0.85
2023-01-25T04:02:45.331Z,-0.81
2023-01-25T04:03:47.337Z,-0.81
2023-01-25T04:04:52.333Z,-0.79
2023-01-25T04:05:55.139Z,-0.83
2023-01-25T04:06:59.844Z,-0.92
2023-01-25T04:08:01.908Z,-0.90
2023-01-25T04:09:06.783Z,-0.84
2023-01-25T04:10:10.680Z,-0.87
2023-01-25T04:11:15.502Z,-0.88
2023-01-25T04:12:17.622Z,-0.91
2023-01-25T04:13:27.065Z,-0.87
2023-01-25T04:14:43.627Z,-0.90
2023-01-25T04:15:49.241Z,-0.89
2023-01-25T04:16:51.325Z,-0.89
2023-01-25T04:17:56.372Z,-0.86
2023-01-25T04:18:58.628Z,-0.86
2023-01-25T04:20:03.445Z,-0.88
2023-01-25T04:21:06.402Z,-0.82
2023-01-25T04:22:11.465Z,-0.87
2023-01-25T04:23:16.089Z,-0.97
2023-01-25T04:24:18.172Z,-0.97
2023-01-25T04:25:22.935Z,-0.95
2023-01-25T04:26:25.187Z,-0.93
2023-01-25T04:27:29.775Z,-0.88
2023-01-25T04:28:35.589Z,-0.87
2023-01-25T04:29:41.889Z,-0.87
2023-01-25T04:30:44.275Z,-0.83
2023-01-25T04:31:49.167Z,-0.85
2023-01-25T04:32:51.573Z,-0.88
2023-01-25T04:33:56.548Z,-0.81
2023-01-25T04:34:58.638Z,-0.84
2023-01-25T04:36:03.587Z,-0.85
2023-01-25T04:37:05.546Z,-0.88
2023-01-25T04:38:10.370Z,-0.95
2023-01-25T04:39:12.300Z,-0.95
2023-01-25T04:40:16.878Z,-0.93
2023-01-25T04:41:18.816Z,-0.89
2023-01-25T04:42:23.428Z,-0.95
2023-01-25T04:43:26.341Z,-0.87
2023-01-25T04:44:33.616Z,-0.83
2023-01-25T04:45:36.482Z,-0.83
2023-01-25T04:46:41.234Z,-0.88
2023-01-25T04:47:43.232Z,-0.92
2023-01-25T04:48:48.074Z,-0.96
2023-01-25T04:49:50.143Z,-0.95
2023-01-25T04:50:54.716Z,-0.99
2023-01-25T04:51:56.843Z,-0.97
2023-01-25T04:53:01.429Z,-1.01
2023-01-25T04:54:04.817Z,-1.03
2023-01-25T04:55:10.418Z,-1.05
2023-01-25T04:56:12.627Z,-0.98
2023-01-25T04:57:17.139Z,-0.99
2023-01-25T04:58:19.756Z,-1.01
2023-01-25T04:59:24.250Z,-0.95
2023-01-25T05:00:29.408Z,-1.00
2023-01-25T05:01:34.686Z,-0.96
2023-01-25T05:02:36.790Z,-1.00
2023-01-25T05:03:41.388Z,-0.99
2023-01-25T05:04:43.372Z,-0.96
2023-01-25T05:05:49.835Z,-0.99
2023-01-25T05:06:51.777Z,-1.00
2023-01-25T05:07:56.279Z,-0.96
2023-01-25T05:08:58.227Z,-0.95
2023-01-25T05:10:02.798Z,-0.95
2023-01-25T05:11:05.020Z,-0.95
2023-01-25T05:12:13.646Z,-0.98
2023-01-25T05:13:15.572Z,-0.98
2023-01-25T05:14:20.127Z,-0.97
2023-01-25T05:15:22.127Z,-0.98
2023-01-25T05:16:29.296Z,-0.95
2023-01-25T05:17:31.324Z,-0.97
2023-01-25T05:18:47.421Z,-1.00
2023-01-25T05:19:49.735Z,-0.96
2023-01-25T05:20:57.829Z,-0.94
2023-01-25T05:22:00.170Z,-0.93
2023-01-25T05:23:04.806Z,-1.02
2023-01-25T05:24:07.476Z,-0.95
2023-01-25T05:25:32.648Z,-0.97
2023-01-25T05:26:49.747Z,-0.94
2023-01-25T05:27:51.726Z,-0.96
2023-01-25T05:28:53.773Z,-0.94
2023-01-25T05:30:00.015Z,-0.95
2023-01-25T05:31:04.825Z,-0.93
2023-01-25T05:32:14.600Z,-0.85
2023-01-25T05:33:16.633Z,-0.88
2023-01-25T05:34:21.335Z,-0.85
2023-01-25T05:35:26.135Z,-0.88
2023-01-25T05:36:28.105Z,-0.85
2023-01-25T05:37:32.823Z,-0.88
2023-01-25T05:38:34.915Z,-0.91
2023-01-25T05:39:39.733Z,-0.88
2023-01-25T05:40:42.090Z,-0.92
2023-01-25T05:41:46.801Z,-0.94
2023-01-25T05:42:53.950Z,-0.95
2023-01-25T05:43:58.587Z,-0.98
2023-01-25T05:45:00.604Z,-0.95
2023-01-25T05:46:06.010Z,-0.96
2023-01-25T05:47:16.420Z,-0.90
2023-01-25T05:48:18.448Z,-0.91
2023-01-25T05:49:23.638Z,-0.96
2023-01-25T05:50:26.573Z,-0.99
2023-01-25T05:51:31.212Z,-0.94
2023-01-25T05:52:33.289Z,-0.95
2023-01-25T05:53:37.919Z,-1.00
2023-01-25T05:54:40.212Z,-0.98
2023-01-25T05:55:44.824Z,-0.97
2023-01-25T05:56:50.085Z,-0.96
2023-01-25T05:57:58.030Z,-0.97
2023-01-25T05:59:01.708Z,-0.97
2023-01-25T06:00:07.991Z,-0.95
2023-01-25T06:01:10.233Z,-0.94
2023-01-25T06:02:17.659Z,-0.97
2023-01-25T06:03:19.862Z,-0.97
2023-01-25T06:04:24.687Z,-0.99
2023-01-25T06:05:26.765Z,-0.96
2023-01-25T06:06:31.708Z,-0.98
2023-01-25T06:07:36.367Z,-0.97
2023-01-25T06:08:41.436Z,-0.92
2023-01-25T06:09:43.539Z,-0.95
2023-01-25T06:10:48.147Z,-0.93
2023-01-25T06:11:50.310Z,-0.94
2023-01-25T06:13:00.762Z,-0.94
2023-01-25T06:14:02.759Z,-0.95
2023-01-25T06:15:08.757Z,-0.94
2023-01-25T06:16:11.258Z,-0.94
2023-01-25T06:17:18.779Z,-0.95
2023-01-25T06:18:21.544Z,-0.93
2023-01-25T06:19:26.124Z,-0.96
2023-01-25T06:20:28.295Z,-1.01
2023-01-25T06:21:33.056Z,-1.01
2023-01-25T06:22:35.144Z,-1.02
2023-01-25T06:23:39.956Z,-1.06
2023-01-25T06:24:42.024Z,-1.05
2023-01-25T06:25:46.661Z,-1.04
2023-01-25T06:26:48.681Z,-1.07
2023-01-25T06:27:53.322Z,-1.09
2023-01-25T06:28:55.478Z,-1.07
2023-01-25T06:30:00.752Z,-1.09
2023-01-25T06:31:07.788Z,-1.11
2023-01-25T06:32:12.633Z,-1.10
2023-01-25T06:33:17.578Z,-1.06
2023-01-25T06:34:22.837Z,-1.07
2023-01-25T06:35:25.087Z,-1.07
2023-01-25T06:36:29.967Z,-1.03
2023-01-25T06:37:31.993Z,-1.01
2023-01-25T06:38:37.005Z,-1.01
2023-01-25T06:39:38.974Z,-1.03
2023-01-25T06:40:43.650Z,-0.98
2023-01-25T06:41:48.362Z,-1.04
2023-01-25T06:42:50.486Z,-1.00
2023-01-25T06:43:55.988Z,-1.02
2023-01-25T06:44:57.953Z,-0.98
2023-01-25T06:46:03.497Z,-0.93
2023-01-25T06:47:05.679Z,-0.96
2023-01-25T06:48:12.756Z,-0.94
2023-01-25T06:49:20.568Z,-0.94
2023-01-25T06:50:22.655Z,-0.91
2023-01-25T06:51:27.365Z,-0.92
2023-01-25T06:52:30.929Z,-0.95
2023-01-25T06:53:38.466Z,-0.97
2023-01-25T06:54:43.230Z,-0.97
2023-01-25T06:55:45.169Z,-0.94
2023-01-25T06:56:49.749Z,-0.95
2023-01-25T06:57:51.862Z,-0.97
2023-01-25T06:58:56.499Z,-0.87
2023-01-25T06:59:58.485Z,-0.85
2023-01-25T07:01:04.649Z,-0.93
2023-01-25T07:02:06.822Z,-0.94
2023-01-25T07:03:11.783Z,-0.92
2023-01-25T07:04:16.399Z,-0.86
2023-01-25T07:05:21.357Z,-0.87
2023-01-25T07:06:27.507Z,-0.89
2023-01-25T07:07:29.725Z,-0.83
2023-01-25T07:08:35.453Z,-0.77
2023-01-25T07:09:40.347Z,-0.81
2023-01-25T07:10:42.330Z,-0.83
2023-01-25T07:11:47.520Z,-0.89
2023-01-25T07:12:49.476Z,-0.86
2023-01-25T07:13:54.164Z,-0.86
2023-01-25T07:14:56.503Z,-0.88
2023-01-25T07:16:02.937Z,-0.81
2023-01-25T07:17:07.971Z,-0.81
2023-01-25T07:18:16.267Z,-0.77
2023-01-25T07:19:21.609Z,-0.80
2023-01-25T07:20:26.460Z,-0.80
2023-01-25T07:21:31.081Z,-0.81
2023-01-25T07:22:37.752Z,-0.85
2023-01-25T07:23:40.497Z,-0.84
2023-01-25T07:24:50.007Z,-0.84
2023-01-25T07:25:52.003Z,-0.77
2023-01-25T07:26:56.760Z,-0.79
2023-01-25T07:27:58.848Z,-0.80
2023-01-25T07:29:03.536Z,-0.83
2023-01-25T07:30:09.620Z,-0.78
2023-01-25T07:31:12.021Z,-0.84
2023-01-25T07:32:17.033Z,-0.84
2023-01-25T07:33:19.011Z,-0.83
2023-01-25T07:34:23.717Z,-0.77
2023-01-25T07:35:28.231Z,-0.82
2023-01-25T07:36:33.178Z,-0.84
2023-01-25T07:37:35.297Z,-0.84
2023-01-25T07:38:40.057Z,-0.83
2023-01-25T07:39:48.602Z,-0.85
2023-01-25T07:40:52.268Z,-0.79
2023-01-25T07:41:56.749Z,-0.76
2023-01-25T07:42:58.907Z,-0.74
2023-01-25T07:44:03.482Z,-0.73
2023-01-25T07:45:06.588Z,-0.74
2023-01-25T07:46:14.064Z,-0.72
2023-01-25T07:47:16.358Z,-0.73
2023-01-25T07:48:22.522Z,-0.74
2023-01-25T07:49:27.058Z,-0.77
2023-01-25T07:50:31.580Z,-0.76
2023-01-25T07:51:36.130Z,-0.77
2023-01-25T07:52:38.162Z,-0.76
2023-01-25T07:53:43.436Z,-0.76
2023-01-25T07:54:50.003Z,-0.76
2023-01-25T07:55:52.006Z,-0.82
2023-01-25T07:56:57.904Z,-0.77
2023-01-25T07:58:00.673Z,-0.74
2023-01-25T07:59:08.325Z,-0.72
2023-01-25T08:00:13.160Z,-0.66
2023-01-25T08:01:19.829Z,-0.69
2023-01-25T08:02:24.742Z,-0.62
2023-01-25T08:03:26.774Z,-0.64
2023-01-25T08:04:31.385Z,-0.65
2023-01-25T08:05:35.873Z,-0.61
2023-01-25T08:06:41.654Z,-0.62
2023-01-25T08:07:46.176Z,-0.62
2023-01-25T08:08:52.300Z,-0.69
2023-01-25T08:09:56.822Z,-0.69
2023-01-25T08:10:58.769Z,-0.71
2023-01-25T08:12:03.524Z,-0.64
2023-01-25T08:13:06.919Z,-0.63
2023-01-25T08:14:11.585Z,-0.62
2023-01-25T08:15:16.367Z,-0.65
2023-01-25T08:16:20.253Z,-0.66
2023-01-25T08:17:24.907Z,-0.62
2023-01-25T08:18:29.410Z,-0.59
2023-01-25T08:19:33.892Z,-0.61
2023-01-25T08:20:38.408Z,-0.71
2023-01-25T08:21:42.958Z,-0.68
2023-01-25T08:22:47.569Z,-0.69
2023-01-25T08:23:52.139Z,-0.65
2023-01-25T08:24:57.254Z,-0.62
2023-01-25T08:26:02.340Z,-0.68
2023-01-25T08:27:06.970Z,-0.65
2023-01-25T08:28:08.895Z,-0.62
2023-01-25T08:29:14.150Z,-0.58
2023-01-25T08:30:19.593Z,-0.55
2023-01-25T08:31:23.052Z,-0.56
2023-01-25T08:32:27.887Z,-0.55
2023-01-25T08:33:29.857Z,-0.56
2023-01-25T08:34:34.599Z,-0.50
2023-01-25T08:35:39.221Z,-0.45
2023-01-25T08:36:43.753Z,-0.50
2023-01-25T08:37:48.248Z,-0.48
2023-01-25T08:38:57.540Z,-0.45
2023-01-25T08:40:02.081Z,-0.40
2023-01-25T08:41:07.318Z,-0.37
2023-01-25T08:42:11.855Z,-0.41
2023-01-25T08:43:14.305Z,-0.33
2023-01-25T08:44:22.429Z,-0.30
2023-01-25T08:45:26.928Z,-0.31
2023-01-25T08:46:33.576Z,-0.33
2023-01-25T08:47:35.734Z,-0.35
2023-01-25T08:48:40.593Z,-0.40
2023-01-25T08:49:45.187Z,-0.36
2023-01-25T08:50:49.756Z,-0.32
2023-01-25T08:51:54.419Z,-0.30
2023-01-25T08:52:56.505Z,-0.29
2023-01-25T08:54:05.002Z,-0.29
2023-01-25T08:55:10.206Z,-0.29
2023-01-25T08:56:17.040Z,-0.28
2023-01-25T08:57:21.584Z,-0.20
2023-01-25T08:58:23.549Z,-0.16
2023-01-25T08:59:28.074Z,-0.16
2023-01-25T09:00:30.152Z,-0.20
2023-01-25T09:01:34.852Z,-0.28
2023-01-25T09:02:38.110Z,-0.26
2023-01-25T09:03:44.494Z,-0.30
2023-01-25T09:04:50.007Z,-0.38
2023-01-25T09:05:54.962Z,-0.31
2023-01-25T09:06:59.702Z,-0.31
2023-01-25T09:08:05.871Z,-0.30
2023-01-25T09:09:11.467Z,-0.35
2023-01-25T09:10:16.322Z,-0.32
2023-01-25T09:11:23.644Z,-0.33
2023-01-25T09:12:28.344Z,-0.38
2023-01-25T09:13:30.485Z,-0.31
2023-01-25T09:14:35.203Z,-0.33
2023-01-25T09:15:37.203Z,-0.33
2023-01-25T09:16:42.184Z,-0.36
2023-01-25T09:17:47.020Z,-0.35
2023-01-25T09:18:50.731Z,-0.34
2023-01-25T09:19:55.752Z,-0.35
2023-01-25T09:21:03.501Z,-0.30
2023-01-25T09:22:08.464Z,-0.28
2023-01-25T09:23:13.270Z,-0.34
2023-01-25T09:24:18.128Z,-0.26
2023-01-25T09:25:20.191Z,-0.19
2023-01-25T09:26:24.917Z,-0.20
2023-01-25T09:27:29.677Z,-0.14
2023-01-25T09:28:33.401Z,-0.10
2023-01-25T09:29:39.574Z,-0.10
2023-01-25T09:30:53.592Z,-0.12
2023-01-25T09:32:04.453Z,-0.15
2023-01-25T09:33:06.783Z,-0.26
2023-01-25T09:34:12.369Z,-0.20
2023-01-25T09:35:17.735Z,-0.10
2023-01-25T09:36:22.476Z,-0.14
2023-01-25T09:37:27.222Z,-0.10
2023-01-25T09:38:29.445Z,-0.16
2023-01-25T09:39:34.038Z,-0.06
2023-01-25T09:40:44.414Z,-0.15
2023-01-25T09:42:23.572Z,-0.11
2023-01-25T09:43:41.188Z,-0.13
2023-01-25T09:45:12.404Z,-0.11
2023-01-25T09:46:29.096Z,-0.05
2023-01-25T09:47:42.808Z,-0.05
2023-01-25T09:49:07.393Z,-0.10
2023-01-25T09:50:35.470Z,-0.05
2023-01-25T09:51:59.879Z,-0.10
2023-01-25T09:53:24.401Z,-0.05
2023-01-25T09:54:33.756Z,-0.06
2023-01-25T09:55:41.403Z,0.00
2023-01-25T09:56:46.673Z,0.03
2023-01-25T09:57:51.107Z,-0.05
2023-01-25T09:59:00.405Z,-0.03
2023-01-25T10:00:12.266Z,-0.05
2023-01-25T10:01:38.050Z,-0.10
2023-01-25T10:02:52.058Z,-0.07
2023-01-25T10:04:00.858Z,-0.09
2023-01-25T10:05:11.200Z,-0.02
2023-01-25T10:06:16.903Z,0.01
2023-01-25T10:07:31.019Z,0.05
2023-01-25T10:08:42.243Z,0.10
2023-01-25T10:09:54.667Z,-0.13
2023-01-25T10:11:02.450Z,-0.16
2023-01-25T10:12:15.627Z,-0.03
2023-01-25T10:13:21.941Z,-0.02
2023-01-25T10:14:28.081Z,-0.10
2023-01-25T10:15:38.299Z,-0.04
2023-01-25T10:16:53.366Z,0.00
2023-01-25T10:18:06.881Z,-0.19
2023-01-25T10:19:22.748Z,-0.09
2023-01-25T10:20:35.027Z,-0.08
2023-01-25T10:21:43.977Z,-0.08
2023-01-25T10:22:56.010Z,-0.03
2023-01-25T10:24:13.380Z,-0.05
2023-01-25T10:25:39.251Z,-0.05
2023-01-25T10:26:45.369Z,-0.04
2023-01-25T10:28:04.472Z,-0.09
2023-01-25T10:29:15.735Z,-0.02
2023-01-25T10:30:30.339Z,-0.18
2023-01-25T10:31:43.024Z,-0.13
2023-01-25T10:32:55.291Z,-0.06
2023-01-25T10:34:01.889Z,-0.04
2023-01-25T10:35:33.432Z,-0.05
2023-01-25T10:36:39.335Z,-0.25
2023-01-25T10:37:44.576Z,-0.18
2023-01-25T10:38:49.930Z,-0.10
2023-01-25T10:40:01.232Z,-0.02
2023-01-25T10:41:10.040Z,0.07
2023-01-25T10:42:18.234Z,0.03
2023-01-25T10:43:25.341Z,0.05
2023-01-25T10:44:30.406Z,0.09
2023-01-25T10:45:32.586Z,0.04
2023-01-25T10:46:38.056Z,0.04
2023-01-25T10:47:45.633Z,0.07
2023-01-25T10:48:50.549Z,0.04
2023-01-25T10:49:57.662Z,0.08
2023-01-25T10:51:03.169Z,-0.06
2023-01-25T10:52:14.715Z,0.03
2023-01-25T10:53:31.480Z,0.03
2023-01-25T10:54:38.994Z,0.08
2023-01-25T10:56:01.357Z,0.04
2023-01-25T10:57:09.431Z,-0.05
2023-01-25T10:58:33.430Z,-0.07
2023-01-25T10:59:39.421Z,0.01
2023-01-25T11:00:41.985Z,0.00
2023-01-25T11:01:47.387Z,0.10
2023-01-25T11:02:54.002Z,0.11
2023-01-25T11:03:59.537Z,0.18
2023-01-25T11:05:27.169Z,0.25
2023-01-25T11:06:34.907Z,0.19
2023-01-25T11:07:39.699Z,0.20
2023-01-25T11:08:46.104Z,0.20
2023-01-25T11:09:53.374Z,0.22
2023-01-25T11:10:55.513Z,0.25
2023-01-25T11:12:02.345Z,0.31
2023-01-25T11:13:23.014Z,0.30
2023-01-25T11:14:29.639Z,0.30
2023-01-25T11:15:34.643Z,0.33
2023-01-25T11:16:43.855Z,0.31
2023-01-25T11:17:45.850Z,0.32
2023-01-25T11:18:55.898Z,0.29
2023-01-25T11:20:19.338Z,0.18
2023-01-25T11:21:25.826Z,0.15
2023-01-25T11:22:30.569Z,0.21
2023-01-25T11:23:33.944Z,0.25
2023-01-25T11:24:39.447Z,0.27
2023-01-25T11:25:44.126Z,0.22
2023-01-25T11:26:49.290Z,0.18
2023-01-25T11:27:51.289Z,0.19
2023-01-25T11:29:10.434Z,0.18
2023-01-25T11:30:21.623Z,0.22
2023-01-25T11:31:27.460Z,0.16
2023-01-25T11:32:29.594Z,0.20
2023-01-25T11:33:34.481Z,0.25
2023-01-25T11:34:39.440Z,0.19
2023-01-25T11:36:04.895Z,0.20
2023-01-25T11:37:23.081Z,0.19
2023-01-25T11:38:28.475Z,0.28
2023-01-25T11:39:45.589Z,0.26
2023-01-25T11:41:00.418Z,0.20
2023-01-25T11:42:15.433Z,0.13
2023-01-25T11:43:32.540Z,0.09
2023-01-25T11:45:10.371Z,0.09
2023-01-25T11:46:41.178Z,0.01
2023-01-25T11:47:57.807Z,0.03
2023-01-25T11:49:14.737Z,0.03
2023-01-25T11:50:27.035Z,0.10
2023-01-25T11:51:37.186Z,0.03
2023-01-25T11:53:03.139Z,0.08
2023-01-25T11:54:48.909Z,0.09
2023-01-25T11:56:02.803Z,0.11
2023-01-25T11:57:21.684Z,0.10
2023-01-25T11:58:45.789Z,-0.04
2023-01-25T12:00:12.721Z,0.09
2023-01-25T12:01:26.494Z,0.14
2023-01-25T12:02:52.797Z,0.18
2023-01-25T12:04:28.253Z,0.24
2023-01-25T12:05:46.485Z,0.21
2023-01-25T12:07:02.879Z,0.27
2023-01-25T12:08:22.908Z,0.26
2023-01-25T12:09:43.529Z,0.24
2023-01-25T12:11:00.004Z,0.24
2023-01-25T12:12:14.201Z,0.27
2023-01-25T12:13:28.572Z,0.30
2023-01-25T12:14:45.954Z,0.32
2023-01-25T12:16:12.043Z,0.35
2023-01-25T12:17:34.672Z,0.35
2023-01-25T12:19:07.127Z,0.38
2023-01-25T12:20:31.608Z,0.35
2023-01-25T12:21:50.453Z,0.35
2023-01-25T12:23:18.107Z,0.33
2023-01-25T12:24:37.639Z,0.37
2023-01-25T12:25:48.400Z,0.35
2023-01-25T12:27:03.860Z,0.36
2023-01-25T12:28:16.823Z,0.26
2023-01-25T12:29:28.175Z,0.18
2023-01-25T12:30:44.987Z,0.21
2023-01-25T12:31:55.012Z,0.30
2023-01-25T12:33:14.348Z,0.19
2023-01-25T12:34:24.533Z,0.24
2023-01-25T12:35:36.099Z,0.25
2023-01-25T12:36:45.970Z,0.25
2023-01-25T12:37:49.778Z,0.24
2023-01-25T12:39:00.622Z,0.25
2023-01-25T12:40:12.400Z,0.28
2023-01-25T12:41:29.209Z,0.18
2023-01-25T12:42:42.656Z,0.11
2023-01-25T12:43:53.296Z,0.20
2023-01-25T12:45:03.785Z,0.14
2023-01-25T12:46:17.775Z,0.23
2023-01-25T12:47:28.073Z,0.21
2023-01-25T12:48:36.720Z,0.17
2023-01-25T12:49:45.623Z,0.09
2023-01-25T12:50:55.230Z,0.16
2023-01-25T12:52:04.318Z,0.15
2023-01-25T12:53:13.864Z,0.16
2023-01-25T12:54:26.249Z,0.17
2023-01-25T12:55:31.931Z,0.11
2023-01-25T12:56:45.489Z,0.08
2023-01-25T12:58:01.067Z,0.11
2023-01-25T12:59:17.802Z,0.10
2023-01-25T13:00:30.368Z,0.20
2023-01-25T13:01:43.191Z,0.22
2023-01-25T13:03:03.223Z,0.18
2023-01-25T13:04:23.580Z,0.21
2023-01-25T13:05:37.787Z,0.19
2023-01-25T13:06:50.560Z,0.17
2023-01-25T13:08:05.599Z,0.21
2023-01-25T13:09:16.754Z,0.12
2023-01-25T13:10:27.306Z,0.18
2023-01-25T13:11:37.782Z,0.13
2023-01-25T13:13:00.999Z,0.14
2023-01-25T13:14:41.517Z,0.09
2023-01-25T13:15:47.841Z,0.11
2023-01-25T13:17:09.033Z,0.13
2023-01-25T13:18:42.418Z,0.15
2023-01-25T13:19:47.349Z,0.15
2023-01-25T13:20:54.066Z,0.14
2023-01-25T13:21:59.825Z,0.15
2023-01-25T13:23:01.963Z,0.20
2023-01-25T13:24:18.713Z,0.15
2023-01-25T13:25:22.836Z,0.19
2023-01-25T13:26:51.758Z,0.06
2023-01-25T13:28:43.260Z,0.11
2023-01-25T13:29:49.493Z,0.03
2023-01-25T13:30:56.261Z,0.00
2023-01-25T13:31:59.625Z,0.00
2023-01-25T13:33:07.421Z,-0.01
2023-01-25T13:34:12.720Z,-0.02
2023-01-25T13:35:27.265Z,-0.05
2023-01-25T13:36:48.597Z,-0.06
2023-01-25T13:37:59.292Z,0.01
2023-01-25T13:39:04.568Z,0.03
2023-01-25T13:40:37.401Z,-0.01
2023-01-25T13:42:01.185Z,0.01
2023-01-25T13:43:20.741Z,-0.04
2023-01-25T13:44:29.350Z,-0.06
2023-01-25T13:45:38.022Z,-0.09
2023-01-25T13:46:40.037Z,-0.06
2023-01-25T13:47:47.292Z,-0.09
2023-01-25T13:49:02.696Z,-0.09
2023-01-25T13:50:21.566Z,-0.06
2023-01-25T13:51:25.148Z,-0.13
2023-01-25T13:52:32.380Z,-0.26
2023-01-25T13:53:35.471Z,-0.21
2023-01-25T13:54:46.222Z,-0.20
2023-01-25T13:55:50.645Z,-0.26
2023-01-25T13:57:07.162Z,-0.23
2023-01-25T13:58:21.372Z,-0.25
2023-01-25T13:59:30.470Z,-0.15
2023-01-25T14:00:32.578Z,-0.12
2023-01-25T14:01:39.206Z,-0.12
2023-01-25T14:02:43.157Z,-0.12
2023-01-25T14:03:49.915Z,-0.26
2023-01-25T14:04:53.175Z,-0.15
2023-01-25T14:06:02.590Z,-0.21
2023-01-25T14:07:10.117Z,-0.24
2023-01-25T14:08:15.875Z,-0.36
2023-01-25T14:09:22.881Z,-0.28
2023-01-25T14:10:30.911Z,-0.28
2023-01-25T14:11:34.865Z,-0.38
2023-01-25T14:12:42.334Z,-0.38
2023-01-25T14:14:02.009Z,-0.41
2023-01-25T14:15:25.114Z,-0.34
2023-01-25T14:16:30.530Z,-0.39
2023-01-25T14:17:35.287Z,-0.34
2023-01-25T14:18:43.213Z,-0.35
2023-01-25T14:19:50.129Z,-0.43
2023-01-25T14:20:53.701Z,-0.39
2023-01-25T14:22:14.799Z,-0.42
2023-01-25T14:23:22.607Z,-0.44
2023-01-25T14:24:27.375Z,-0.44
2023-01-25T14:25:32.747Z,-0.41
2023-01-25T14:26:39.413Z,-0.37
2023-01-25T14:27:49.070Z,-0.32
2023-01-25T14:29:02.293Z,-0.32
2023-01-25T14:30:20.774Z,-0.34
2023-01-25T14:31:28.566Z,-0.37
2023-01-25T14:32:30.884Z,-0.45
2023-01-25T14:33:44.586Z,-0.40